M V Stampede — V70B4 — position and weather

sailwx.info

Track history (hours):
 
Tides and Currents Weather Stations Pressure Air Temp Water Temp Dewpoint Dewpoint Depression Visibility Wind Speed Wind Dir Waves Ship Positions

M V Stampede

Last reported at 2014-Aug-21 15:26 UTC. Time now 2014-Aug-28 01:17 UTC.
Position N 40°43' W 074°03'.

Length 35 m; draft 3.2 m.

Type: Pleasure craft. MMSI: 538070463.

Date/timePositionNaut miles runAvg speedWind from/ knotsBaromVisibWave heightAir tempDewpointWater temp
2014-Aug-21 15:26N 40°43' W 074°03'2 2.3
2014-Aug-21 14:33N 40°42' W 074°00'1110.5
2014-Aug-21 13:33N 40°48' W 073°49'8 7.5
2014-Aug-21 12:32N 40°54' W 073°42'8 7.8
2014-Aug-21 11:33N 40°57' W 073°33'7 0.6
2014-Aug-20 23:24N 40°57' W 073°23'8 9.6
2014-Aug-20 22:32N 41°01' W 073°13'1010.3
2014-Aug-20 21:34N 41°03' W 073°00'1010.2
2014-Aug-20 20:34N 41°05' W 072°47'1010.4
2014-Aug-20 19:34N 41°07' W 072°33'9 9.4
2014-Aug-20 18:33N 41°09' W 072°21'  
2014-Aug-13 20:33N 41°02' W 072°16'9 8.7
2014-Aug-13 19:33N 41°09' W 072°09'8 8.1
2014-Aug-13 18:33N 41°12' W 071°59'9 9.1
2014-Aug-13 17:33N 41°15' W 071°48'9 9.3
2014-Aug-13 16:33N 41°19' W 071°36'9 8.6
2014-Aug-13 15:33N 41°23' W 071°26'6 6.2
2014-Aug-13 14:33N 41°28' W 071°22'  
Track history (hours):
 
Tides and Currents Weather Stations Pressure Air Temp Water Temp Dewpoint Dewpoint Depression Visibility Wind Speed Wind Dir Waves Ship Positions

M V Stampede

Last reported at 2014-Aug-21 15:26 UTC. Time now 2014-Aug-28 01:17 UTC.
Position N 40°43' W 074°03'.

Length 35 m; draft 3.2 m.

Type: Pleasure craft. MMSI: 538070463.

Date/timePositionNaut miles runAvg speedWind from/ knotsBaromVisibWave heightAir tempDewpointWater temp
2014-Aug-21 15:26N 40°43' W 074°03'2 2.3
2014-Aug-21 14:33N 40°42' W 074°00'1110.5
2014-Aug-21 13:33N 40°48' W 073°49'8 7.5
2014-Aug-21 12:32N 40°54' W 073°42'8 7.8
2014-Aug-21 11:33N 40°57' W 073°33'7 0.6
2014-Aug-20 23:24N 40°57' W 073°23'8 9.6
2014-Aug-20 22:32N 41°01' W 073°13'1010.3
2014-Aug-20 21:34N 41°03' W 073°00'1010.2
2014-Aug-20 20:34N 41°05' W 072°47'1010.4
2014-Aug-20 19:34N 41°07' W 072°33'9 9.4
2014-Aug-20 18:33N 41°09' W 072°21'  
2014-Aug-13 20:33N 41°02' W 072°16'9 8.7
2014-Aug-13 19:33N 41°09' W 072°09'8 8.1
2014-Aug-13 18:33N 41°12' W 071°59'9 9.1
2014-Aug-13 17:33N 41°15' W 071°48'9 9.3
2014-Aug-13 16:33N 41°19' W 071°36'9 8.6
2014-Aug-13 15:33N 41°23' W 071°26'6 6.2
2014-Aug-13 14:33N 41°28' W 071°22'  

Dump ship's entire track history